Santa Cruz, CA (95060)

8:06 PM PDT on July 28, 2015 (GMT -0700)
High St | | Change Station
CLOSE
Current Station
Personal Weather Station
Location: Santa Cruz, CA
Elevation: 141 ft
Nearby Weather Stations
Active Advisory: Beach Hazard Statement Active Notice: Record Report

Elev 141 ft 36.98 °N, 122.03 °W | Updated 3 minutes ago

Partly Cloudy
Partly Cloudy
62.6 °F
Feels Like 62.6 °F
N
1.6
Wind Variable Wind from SSW

Today
High -- | Low -- °F
--% Chance of Precip.
Yesterday
High -- | Low -- °F
Precip. -- in
6:10 AM 8:18 PM
Waxing Gibbous, 93% visible
Pressure 29.89 in
Visibility 8.0 miles
Clouds Overcast 500 ft
Dew Point 60 °F
Humidity 93%
Rainfall 0.00 in
Snow Depth Not available.
UV 0 out of 12
Pollen 4.20 out of 12
Air Quality Not available.
Flu Activity Not available.
METAR KWVI 290253Z AUTO 19004KT 8SM OVC005 16/14 A2989 RMK AO2 SLP122 T01610144 53005

More Conditions Fewer Conditions

Pressure 29.89 in
Visibility 8.0 miles
Clouds Overcast 500 ft
Dew Point 60 °F
Humidity 93%
Rainfall 0.00 in
Snow Depth Not available.
UV 0 out of 12
Pollen 4.20 out of 12
Air Quality Not available.
Flu Activity Not available.
METAR KWVI 290253Z AUTO 19004KT 8SM OVC005 16/14 A2989 RMK AO2 SLP122 T01610144 53005

More Conditions Fewer Conditions

A strong ridge of high pressure will aid in providing some of the warmest temperatures of the Summer thus far along the West Coast, while dangerously high heat index values up to 110 degrees will be possible from southern Iowa through northern Louisiana. Residents are urged to take precaution while working outside.

10-Day Weather Forecast

×

Almanac

Astronomy

Jul. 28, 2015 Rise Set
Actual Time
Civil Twilight
Nautical Twilight
Astronomical Twilight
Moon
Length of Visible Light
Length of Day
Tomorrow will be .
, % of the Moon is Illuminated

Today's Extremes

State Highs State Lows

Community

WunderPhotos

Upload Photos

1,842,020 photos uploaded!

WunderBlogs® & News

Nearby

Air Quality

  Air Quality AQ Index Pollutant
Not available.

Snow Depth

Station Depth Elevation

Earthquake Activity

City Distance Mag. Time & Date
Minimum magnitude displayed is 2.5.

Coastal Water Temperatures

Place Temperature

Stations

Nearby Weather Stations

Station Location Temp. Windchill Dew Point Humidity Wind Precip. Elev Updated Type
                   
Beach Hazard Statement
Statement as of 12:33 PM PDT on July 28, 2015

... Beach hazards statement in effect until 9 PM PDT this
evening...

* location... south facing beaches of Santa Cruz County.

* Timing... through 9 PM Tuesday evening.

* Impacts... exceptionally strong rip currents and large shore
break.

Precautionary/preparedness actions...

A beach hazards statement means that potentially dangerous
conditions may exist on specific beaches. These hazards may
include large shore break and strong rip currents. All of which
could be life threatening. Be sure to always keep your eyes on the
ocean.